Time;durP1;ratioP1;P1;durP2;ratioP2;P2;SDS_P1;SDS_P2;PMS_P1;PMS_P2;Temp;Humidity;BMP_temperature;BMP_pressure;BME280_temperature;BME280_humidity;BME280_pressure;Samples;Min_cycle;Max_cycle;Signal;HPM_P1;HPM_P2
2022/08/21 00:00:46;;;;;;;4.72;4.22;;;;;;;;;;5072628;28;20266;-83
2022/08/21 00:03:14;;;;;;;4.67;4.27;;;;;;;;;;5072676;28;20209;-84
2022/08/21 00:05:42;;;;;;;6.83;4.20;;;;;;;;;;5071980;28;20590;-84
2022/08/21 00:08:09;;;;;;;5.70;4.30;;;;;;;;;;5072709;28;20588;-83
2022/08/21 00:10:38;;;;;;;7.27;4.20;;;;;;;;;;5073786;28;20236;-84
2022/08/21 00:13:06;;;;;;;4.97;4.27;;;;;;;;;;5074206;28;20216;-83
2022/08/21 00:15:34;;;;;;;5.17;4.67;;;;;;;;;;5074780;28;20240;-84
2022/08/21 00:18:02;;;;;;;4.67;4.27;;;;;;;;;;5073480;28;20719;-83
2022/08/21 00:20:29;;;;;;;6.00;4.70;;;;;;;;;;5073440;28;20237;-83
2022/08/21 00:22:56;;;;;;;5.47;4.60;;;;;;;;;;5074015;28;20194;-83
2022/08/21 00:25:23;;;;;;;5.83;4.27;;;;;;;;;;5074154;28;20612;-83
2022/08/21 00:27:51;;;;;;;7.37;4.63;;;;;;;;;;5074347;28;20842;-83
2022/08/21 00:30:19;;;;;;;5.33;4.60;;;;;;;;;;5073428;28;20744;-83
2022/08/21 00:32:46;;;;;;;5.80;4.53;;;;;;;;;;5073587;28;20216;-83
2022/08/21 00:35:15;;;;;;;5.27;4.43;;;;;;;;;;5074426;28;20240;-83
2022/08/21 00:37:42;;;;;;;6.73;4.70;;;;;;;;;;5075906;28;20216;-83
2022/08/21 00:40:12;;;;;;;7.70;4.50;;;;;;;;;;5079327;28;20240;-83
2022/08/21 00:42:39;;;;;;;5.30;4.80;;;;;;;;;;5080441;28;20212;-83
2022/08/21 00:45:08;;;;;;;6.27;4.43;;;;;;;;;;5082856;28;20244;-83
2022/08/21 00:47:35;;;;;;;5.70;5.10;;;;;;;;;;5080288;28;20205;-83
2022/08/21 00:50:02;;;;;;;6.20;4.80;;;;;;;;;;5076817;28;20244;-83
2022/08/21 00:52:31;;;;;;;5.27;4.50;;;;;;;;;;5075227;28;20213;-83
2022/08/21 00:54:59;;;;;;;5.07;4.57;;;;;;;;;;5075100;28;20240;-83
2022/08/21 00:57:30;;;;;;;6.00;5.13;;;;;;;;;;5075956;28;20208;-83
2022/08/21 00:59:59;;;;;;;7.27;4.87;;;;;;;;;;5074636;28;20608;-83
2022/08/21 01:02:28;;;;;;;9.03;5.17;;;;;;;;;;5075466;28;20236;-83
2022/08/21 01:04:55;;;;;;;6.27;4.47;;;;;;;;;;5075241;28;20233;-83
2022/08/21 01:07:22;;;;;;;5.00;4.33;;;;;;;;;;5072195;28;20668;-84
2022/08/21 01:09:51;;;;;;;5.57;5.07;;;;;;;;;;5074846;28;20209;-83
2022/08/21 01:12:18;;;;;;;5.40;4.60;;;;;;;;;;5076584;28;20209;-84
2022/08/21 01:14:46;;;;;;;8.90;5.60;;;;;;;;;;5076076;28;20610;-84
2022/08/21 01:17:14;;;;;;;5.60;5.07;;;;;;;;;;5079488;28;20208;-83
2022/08/21 01:19:42;;;;;;;6.23;4.70;;;;;;;;;;5079829;28;20612;-83
2022/08/21 01:22:11;;;;;;;6.17;5.10;;;;;;;;;;5080400;28;20220;-83
2022/08/21 01:24:38;;;;;;;9.53;5.30;;;;;;;;;;5080004;28;20229;-84
2022/08/21 01:27:05;;;;;;;5.07;4.57;;;;;;;;;;5080964;28;20201;-83
2022/08/21 01:29:35;;;;;;;6.03;4.73;;;;;;;;;;5081347;28;20681;-83
2022/08/21 01:32:05;;;;;;;7.40;5.20;;;;;;;;;;5079584;28;20304;-83
2022/08/21 01:34:33;;;;;;;9.07;4.87;;;;;;;;;;5084938;28;20236;-83
2022/08/21 01:37:00;;;;;;;8.20;5.37;;;;;;;;;;5079989;28;20644;-83
2022/08/21 01:39:28;;;;;;;6.00;5.13;;;;;;;;;;5081172;28;20728;-83
2022/08/21 01:41:55;;;;;;;7.10;4.83;;;;;;;;;;5080443;28;20236;-83
2022/08/21 01:44:22;;;;;;;6.80;4.67;;;;;;;;;;5081066;28;20739;-83
2022/08/21 01:46:50;;;;;;;5.87;4.93;;;;;;;;;;5078702;28;20241;-83
2022/08/21 01:49:17;;;;;;;6.00;4.87;;;;;;;;;;5079005;28;20205;-84
2022/08/21 01:51:44;;;;;;;7.83;4.70;;;;;;;;;;5078904;28;20241;-82
2022/08/21 01:54:11;;;;;;;5.70;4.53;;;;;;;;;;5079339;28;20225;-83
2022/08/21 01:56:40;;;;;;;5.87;5.13;;;;;;;;;;5078627;28;20236;-83
2022/08/21 01:59:08;;;;;;;10.77;5.03;;;;;;;;;;5079838;28;20228;-83
2022/08/21 02:01:35;;;;;;;6.80;5.27;;;;;;;;;;5077488;28;20264;-83
2022/08/21 02:04:02;;;;;;;7.17;4.73;;;;;;;;;;5078621;28;20225;-83
2022/08/21 02:06:29;;;;;;;7.30;5.10;;;;;;;;;;5079179;28;20237;-83
2022/08/21 02:08:56;;;;;;;5.97;4.90;;;;;;;;;;5080167;28;20205;-83
2022/08/21 02:11:23;;;;;;;7.70;5.10;;;;;;;;;;5078761;28;20229;-83
2022/08/21 02:13:52;;;;;;;7.97;5.53;;;;;;;;;;5080829;28;20261;-83
2022/08/21 02:16:19;;;;;;;7.33;5.20;;;;;;;;;;5078687;28;20612;-83
2022/08/21 02:18:46;;;;;;;9.00;4.93;;;;;;;;;;5078531;28;20221;-83
2022/08/21 02:21:13;;;;;;;5.53;4.97;;;;;;;;;;5079098;28;20256;-83
2022/08/21 02:23:40;;;;;;;6.50;5.33;;;;;;;;;;5080199;28;20237;-83
2022/08/21 02:26:08;;;;;;;7.90;5.27;;;;;;;;;;5079935;28;20240;-83
2022/08/21 02:28:35;;;;;;;6.00;4.80;;;;;;;;;;5080744;28;20213;-83
2022/08/21 02:31:04;;;;;;;6.80;5.10;;;;;;;;;;5080086;28;20236;-83
2022/08/21 02:33:31;;;;;;;5.27;4.77;;;;;;;;;;5080211;28;20233;-83
2022/08/21 02:35:59;;;;;;;6.50;5.10;;;;;;;;;;5079134;28;20228;-83
2022/08/21 02:38:27;;;;;;;5.80;5.10;;;;;;;;;;5081573;28;20205;-83
2022/08/21 02:40:55;;;;;;;5.50;5.00;;;;;;;;;;5082069;28;20234;-83
2022/08/21 02:43:23;;;;;;;6.07;5.47;;;;;;;;;;5081923;28;20591;-82
2022/08/21 02:45:51;;;;;;;7.67;4.80;;;;;;;;;;5079315;28;20237;-83
2022/08/21 02:48:20;;;;;;;9.00;5.67;;;;;;;;;;5079376;28;20221;-83
2022/08/21 02:50:49;;;;;;;6.73;5.43;;;;;;;;;;5079247;28;20233;-83
2022/08/21 02:53:17;;;;;;;8.40;5.60;;;;;;;;;;5080097;28;20201;-82
2022/08/21 02:55:46;;;;;;;7.70;5.63;;;;;;;;;;5079135;28;20263;-84
2022/08/21 02:58:13;;;;;;;8.07;5.40;;;;;;;;;;5078742;28;20197;-85
2022/08/21 03:00:40;;;;;;;8.33;5.40;;;;;;;;;;5078826;28;20241;-83
2022/08/21 03:03:08;;;;;;;6.10;5.07;;;;;;;;;;5078281;28;20210;-84
2022/08/21 03:05:37;;;;;;;7.53;5.60;;;;;;;;;;5077882;28;20237;-84
2022/08/21 03:08:10;;;;;;;6.10;5.50;;;;;;;;;;5077120;28;20241;-84
2022/08/21 03:10:37;;;;;;;6.50;5.10;;;;;;;;;;5078739;28;20237;-83
2022/08/21 03:13:04;;;;;;;7.40;5.30;;;;;;;;;;5077802;28;20193;-84
2022/08/21 03:15:31;;;;;;;6.73;5.67;;;;;;;;;;5073871;28;20696;-84
2022/08/21 03:17:59;;;;;;;6.33;5.63;;;;;;;;;;5073522;28;20224;-84
2022/08/21 03:20:28;;;;;;;6.40;5.80;;;;;;;;;;5072935;28;20244;-84
2022/08/21 03:22:56;;;;;;;7.13;5.70;;;;;;;;;;5073320;28;20209;-84
2022/08/21 03:25:24;;;;;;;8.67;5.63;;;;;;;;;;5072709;28;20237;-83
2022/08/21 03:27:51;;;;;;;6.00;5.33;;;;;;;;;;5053282;28;20202;-84
2022/08/21 03:30:19;;;;;;;7.10;5.70;;;;;;;;;;5053216;28;20767;-84
2022/08/21 03:32:46;;;;;;;7.73;5.73;;;;;;;;;;5053007;28;20264;-84
2022/08/21 03:35:13;;;;;;;6.70;5.13;;;;;;;;;;5052790;28;20237;-84
2022/08/21 03:37:41;;;;;;;6.07;5.30;;;;;;;;;;5053121;28;20202;-84
2022/08/21 03:40:11;;;;;;;7.87;5.20;;;;;;;;;;5052865;28;20237;-83
2022/08/21 03:42:38;;;;;;;6.00;5.40;;;;;;;;;;5068403;28;20746;-84
2022/08/21 03:45:05;;;;;;;7.80;5.60;;;;;;;;;;5052562;28;20237;-84
2022/08/21 03:47:32;;;;;;;9.30;5.60;;;;;;;;;;5053115;28;20576;-84
2022/08/21 03:50:00;;;;;;;7.73;5.77;;;;;;;;;;5052687;28;20233;-85
2022/08/21 03:52:27;;;;;;;8.87;5.93;;;;;;;;;;5053385;28;20202;-84
2022/08/21 03:54:54;;;;;;;6.23;5.63;;;;;;;;;;5066849;28;20244;-84
2022/08/21 03:57:22;;;;;;;7.83;5.23;;;;;;;;;;5073792;28;20555;-84
2022/08/21 03:59:50;;;;;;;7.27;5.87;;;;;;;;;;5073801;28;20287;-83
2022/08/21 04:02:19;;;;;;;8.97;6.00;;;;;;;;;;5073337;28;20623;-83
2022/08/21 04:04:46;;;;;;;8.10;5.57;;;;;;;;;;5072729;28;20225;-84
2022/08/21 04:07:13;;;;;;;9.17;6.40;;;;;;;;;;5073385;28;20306;-84
2022/08/21 04:09:40;;;;;;;7.90;5.77;;;;;;;;;;5074609;28;20206;-83
2022/08/21 04:12:08;;;;;;;7.77;5.37;;;;;;;;;;5088016;28;20209;-84
2022/08/21 04:14:36;;;;;;;6.73;4.90;;;;;;;;;;5072029;28;20651;-83
2022/08/21 04:17:04;;;;;;;7.00;5.67;;;;;;;;;;5073141;28;20243;-84
2022/08/21 04:19:31;;;;;;;7.07;5.30;;;;;;;;;;5072878;28;20237;-84
2022/08/21 04:21:58;;;;;;;6.93;4.83;;;;;;;;;;5072709;28;20273;-83
2022/08/21 04:24:25;;;;;;;7.27;5.63;;;;;;;;;;5072557;28;20231;-84
2022/08/21 04:26:52;;;;;;;6.37;5.57;;;;;;;;;;5071841;28;20236;-83
2022/08/21 04:29:19;;;;;;;8.97;5.47;;;;;;;;;;5072619;28;20653;-84
2022/08/21 04:31:48;;;;;;;6.30;5.50;;;;;;;;;;5072223;28;20244;-83
2022/08/21 04:34:15;;;;;;;6.50;5.90;;;;;;;;;;5072690;28;20229;-83
2022/08/21 04:36:42;;;;;;;6.73;5.73;;;;;;;;;;5071888;28;20233;-83
2022/08/21 04:39:09;;;;;;;6.30;5.70;;;;;;;;;;5072076;28;20198;-84
2022/08/21 04:41:36;;;;;;;9.00;5.90;;;;;;;;;;5071991;28;20229;-83
2022/08/21 04:44:04;;;;;;;9.57;6.30;;;;;;;;;;5074009;28;20226;-83
2022/08/21 04:46:31;;;;;;;8.43;6.00;;;;;;;;;;5081895;28;20244;-84
2022/08/21 04:48:59;;;;;;;7.20;5.83;;;;;;;;;;5078331;28;20197;-83
2022/08/21 04:51:28;;;;;;;9.27;6.03;;;;;;;;;;5078560;28;20610;-83
2022/08/21 04:53:58;;;;;;;9.30;6.17;;;;;;;;;;5076477;28;20593;-84
2022/08/21 04:56:26;;;;;;;8.53;5.93;;;;;;;;;;5076322;28;20696;-83
2022/08/21 04:58:55;;;;;;;7.83;5.67;;;;;;;;;;5076170;28;20642;-84
2022/08/21 05:01:24;;;;;;;7.23;6.00;;;;;;;;;;5075708;28;20237;-84
2022/08/21 05:03:52;;;;;;;12.43;6.63;;;;;;;;;;5076133;28;20660;-83
2022/08/21 05:06:21;;;;;;;7.97;6.83;;;;;;;;;;5076307;28;20240;-84
2022/08/21 05:08:50;;;;;;;8.00;7.07;;;;;;;;;;5076859;28;20240;-84
2022/08/21 05:11:17;;;;;;;7.10;6.37;;;;;;;;;;5075570;28;20232;-83
2022/08/21 05:13:45;;;;;;;6.63;5.50;;;;;;;;;;5076875;28;20238;-84
2022/08/21 05:16:12;;;;;;;9.37;5.83;;;;;;;;;;5075743;28;20243;-83
2022/08/21 05:18:39;;;;;;;7.80;6.10;;;;;;;;;;5076683;28;20205;-84
2022/08/21 05:21:06;;;;;;;10.40;6.43;;;;;;;;;;5075885;28;20240;-83
2022/08/21 05:23:34;;;;;;;10.07;7.20;;;;;;;;;;5076393;28;20221;-84
2022/08/21 05:26:01;;;;;;;10.37;6.17;;;;;;;;;;5069780;28;20716;-84
2022/08/21 05:28:28;;;;;;;10.67;5.90;;;;;;;;;;5076634;28;20212;-83
2022/08/21 05:30:55;;;;;;;8.20;6.70;;;;;;;;;;5075098;28;20233;-83
2022/08/21 05:33:22;;;;;;;12.87;6.47;;;;;;;;;;5075883;28;20216;-84
2022/08/21 05:35:50;;;;;;;11.17;6.83;;;;;;;;;;5075520;28;20630;-83
2022/08/21 05:38:18;;;;;;;9.57;6.53;;;;;;;;;;5075909;28;20242;-83
2022/08/21 05:40:46;;;;;;;7.57;6.83;;;;;;;;;;5074564;28;20247;-83
2022/08/21 05:43:13;;;;;;;9.27;7.20;;;;;;;;;;5075718;28;20677;-84
2022/08/21 05:45:40;;;;;;;8.63;6.70;;;;;;;;;;5075365;28;20237;-84
2022/08/21 05:48:08;;;;;;;8.53;7.27;;;;;;;;;;5076402;28;20617;-81
2022/08/21 05:50:37;;;;;;;9.87;6.93;;;;;;;;;;5074716;28;20233;-82
2022/08/21 05:53:04;;;;;;;9.40;6.73;;;;;;;;;;5076310;28;20209;-81
2022/08/21 05:55:31;;;;;;;7.30;6.07;;;;;;;;;;5078760;28;20237;-81
2022/08/21 05:57:59;;;;;;;7.10;6.30;;;;;;;;;;5075971;28;20210;-81
2022/08/21 06:00:26;;;;;;;8.27;6.30;;;;;;;;;;5075287;28;20239;-81
2022/08/21 06:02:53;;;;;;;11.20;7.30;;;;;;;;;;5075165;28;20201;-82
2022/08/21 06:05:21;;;;;;;7.47;6.67;;;;;;;;;;5074638;28;20694;-81
2022/08/21 06:07:48;;;;;;;9.63;6.97;;;;;;;;;;5075989;28;20212;-81
2022/08/21 06:10:15;;;;;;;8.93;7.30;;;;;;;;;;5071793;28;20236;-81
2022/08/21 06:12:42;;;;;;;10.73;7.20;;;;;;;;;;5094549;28;20205;-81
2022/08/21 06:15:10;;;;;;;8.77;6.50;;;;;;;;;;5079136;28;20252;-81
2022/08/21 06:17:37;;;;;;;9.63;6.43;;;;;;;;;;5078688;28;20201;-81
2022/08/21 06:20:05;;;;;;;8.80;6.57;;;;;;;;;;5096820;28;20250;-81
2022/08/21 06:22:33;;;;;;;11.03;6.50;;;;;;;;;;5100028;28;20548;-81
2022/08/21 06:25:00;;;;;;;10.00;6.50;;;;;;;;;;5097846;28;20331;-81
2022/08/21 06:27:27;;;;;;;9.67;6.77;;;;;;;;;;5098123;28;20215;-81
2022/08/21 06:29:56;;;;;;;6.83;6.20;;;;;;;;;;5105882;28;20212;-81
2022/08/21 06:32:24;;;;;;;8.30;6.13;;;;;;;;;;5114507;28;20197;-81
2022/08/21 06:34:52;;;;;;;11.70;6.67;;;;;;;;;;5086554;28;20237;-82
2022/08/21 06:37:19;;;;;;;8.50;6.00;;;;;;;;;;5074413;28;20235;-82
2022/08/21 06:39:46;;;;;;;11.50;6.23;;;;;;;;;;5074252;28;20206;-82
2022/08/21 06:42:14;;;;;;;10.77;5.77;;;;;;;;;;5081920;28;20677;-82
2022/08/21 06:44:41;;;;;;;10.17;6.00;;;;;;;;;;5074055;28;20225;-82
2022/08/21 06:47:08;;;;;;;8.37;5.37;;;;;;;;;;5059335;28;20201;-82
2022/08/21 06:49:37;;;;;;;7.43;5.77;;;;;;;;;;5074548;28;20247;-81
2022/08/21 06:52:04;;;;;;;10.97;5.87;;;;;;;;;;5074592;28;20216;-81
2022/08/21 06:54:34;;;;;;;8.07;5.83;;;;;;;;;;5074291;28;20217;-82
2022/08/21 06:57:03;;;;;;;7.27;5.60;;;;;;;;;;5074768;28;20216;-82
2022/08/21 06:59:30;;;;;;;7.93;5.40;;;;;;;;;;5075007;28;20193;-81
2022/08/21 07:01:57;;;;;;;7.57;5.35;;;;;;;;;;5074177;28;20244;-81
2022/08/21 07:04:24;;;;;;;8.50;5.50;;;;;;;;;;5091809;28;20220;-81
2022/08/21 07:06:53;;;;;;;8.50;5.30;;;;;;;;;;5094686;28;20240;-81
2022/08/21 07:09:20;;;;;;;8.05;4.72;;;;;;;;;;5078408;28;20209;-81
2022/08/21 07:11:49;;;;;;;8.00;4.93;;;;;;;;;;5067646;28;20220;-81
2022/08/21 07:14:17;;;;;;;6.80;5.15;;;;;;;;;;5075759;28;20536;-81
2022/08/21 07:16:44;;;;;;;14.20;5.60;;;;;;;;;;5071575;28;20665;-81
2022/08/21 07:19:11;;;;;;;8.95;5.47;;;;;;;;;;5071183;28;20209;-81
2022/08/21 07:21:38;;;;;;;8.40;5.80;;;;;;;;;;5076991;28;20236;-81
2022/08/21 07:24:06;;;;;;;10.45;5.50;;;;;;;;;;5071857;28;20217;-79
2022/08/21 07:26:33;;;;;;;8.50;5.65;;;;;;;;;;5079440;28;20236;-83
2022/08/21 07:29:00;;;;;;;9.15;5.60;;;;;;;;;;5056318;28;20197;-82
2022/08/21 07:31:28;;;;;;;8.07;5.45;;;;;;;;;;5068604;28;20229;-82
2022/08/21 07:33:55;;;;;;;6.07;5.47;;;;;;;;;;5073669;28;20232;-82
2022/08/21 07:36:22;;;;;;;7.75;6.07;;;;;;;;;;5072788;28;20256;-82
2022/08/21 07:38:49;;;;;;;10.27;5.80;;;;;;;;;;5073197;28;20209;-82
2022/08/21 07:41:19;;;;;;;7.18;5.47;;;;;;;;;;5070403;28;20244;-82
2022/08/21 07:43:46;;;;;;;10.02;5.13;;;;;;;;;;5084464;28;20220;-82
2022/08/21 07:46:14;;;;;;;7.97;5.20;;;;;;;;;;5075133;28;20710;-83
2022/08/21 07:48:41;;;;;;;10.90;5.82;;;;;;;;;;5074315;28;20205;-81
2022/08/21 07:51:09;;;;;;;9.65;5.72;;;;;;;;;;5072479;28;20244;-83
2022/08/21 07:53:37;;;;;;;8.02;5.53;;;;;;;;;;5073389;28;20226;-81
2022/08/21 07:56:05;;;;;;;6.50;5.38;;;;;;;;;;5073551;28;20233;-81
2022/08/21 07:58:33;;;;;;;8.40;5.82;;;;;;;;;;5073323;28;20209;-81
2022/08/21 08:01:01;;;;;;;8.05;5.78;;;;;;;;;;5072357;28;20221;-81
2022/08/21 08:03:28;;;;;;;7.90;5.60;;;;;;;;;;5073583;28;20233;-81
2022/08/21 08:05:55;;;;;;;7.45;5.38;;;;;;;;;;5072195;28;20217;-81
2022/08/21 08:08:22;;;;;;;6.53;5.53;;;;;;;;;;5072705;28;20210;-81
2022/08/21 08:10:49;;;;;;;7.35;5.13;;;;;;;;;;5072348;28;20240;-81
2022/08/21 08:13:16;;;;;;;6.70;5.43;;;;;;;;;;5072808;28;20755;-81
2022/08/21 08:15:45;;;;;;;8.07;5.45;;;;;;;;;;5072235;28;20229;-82
2022/08/21 08:18:13;;;;;;;7.50;5.25;;;;;;;;;;5072621;28;20220;-82
2022/08/21 08:20:40;;;;;;;6.35;4.75;;;;;;;;;;5072708;28;20257;-82
2022/08/21 08:23:08;;;;;;;9.02;4.75;;;;;;;;;;5074558;28;20301;-83
2022/08/21 08:25:35;;;;;;;7.68;4.57;;;;;;;;;;5067250;28;20233;-82
2022/08/21 08:28:02;;;;;;;5.22;4.38;;;;;;;;;;5061177;28;20210;-83
2022/08/21 08:30:29;;;;;;;7.55;5.30;;;;;;;;;;5071430;28;20236;-83
2022/08/21 08:32:59;;;;;;;7.30;4.50;;;;;;;;;;5073805;28;20204;-83
2022/08/21 08:35:26;;;;;;;7.22;4.25;;;;;;;;;;5080418;28;20241;-83
2022/08/21 08:37:53;;;;;;;5.72;4.35;;;;;;;;;;5070317;28;20205;-83
2022/08/21 08:40:35;;;;;;;5.53;4.13;;;;;;;;;;5071358;28;20241;-83
2022/08/21 08:43:02;;;;;;;3.90;3.50;;;;;;;;;;5072097;28;20244;-83
2022/08/21 08:45:31;;;;;;;5.65;4.50;;;;;;;;;;5077242;28;20705;-84
2022/08/21 08:48:02;;;;;;;6.43;4.60;;;;;;;;;;5072479;28;20212;-83
2022/08/21 08:50:32;;;;;;;4.60;3.97;;;;;;;;;;5073618;28;20244;-82
2022/08/21 08:53:01;;;;;;;5.80;3.05;;;;;;;;;;5073878;28;20202;-83
2022/08/21 08:55:30;;;;;;;7.18;3.78;;;;;;;;;;5075363;28;20225;-85
2022/08/21 08:57:58;;;;;;;8.38;3.70;;;;;;;;;;5074029;28;20212;-83
2022/08/21 09:00:26;;;;;;;4.85;3.47;;;;;;;;;;5071548;28;20233;-84
2022/08/21 09:02:54;;;;;;;4.55;2.80;;;;;;;;;;5073064;28;20209;-81
2022/08/21 09:05:27;;;;;;;3.83;3.17;;;;;;;;;;5080995;28;20660;-86
2022/08/21 09:08:02;;;;;;;5.35;3.58;;;;;;;;;;5072644;28;20629;-84
2022/08/21 09:10:32;;;;;;;7.97;3.85;;;;;;;;;;5072014;28;20607;-84
2022/08/21 09:13:06;;;;;;;3.65;3.20;;;;;;;;;;5071899;28;20205;-83
2022/08/21 09:15:34;;;;;;;10.52;3.63;;;;;;;;;;5071892;28;20602;-83
2022/08/21 09:18:10;;;;;;;6.10;4.00;;;;;;;;;;5072225;28;20235;-83
2022/08/21 09:20:42;;;;;;;6.22;3.55;;;;;;;;;;5071865;28;20232;-83
2022/08/21 09:23:14;;;;;;;7.13;3.35;;;;;;;;;;5072389;28;20189;-83
2022/08/21 09:25:43;;;;;;;4.97;3.25;;;;;;;;;;5071531;28;20243;-83
2022/08/21 09:28:12;;;;;;;4.78;3.17;;;;;;;;;;5072203;28;20293;-84
2022/08/21 09:30:41;;;;;;;6.57;2.85;;;;;;;;;;5071991;28;20236;-83
2022/08/21 09:33:08;;;;;;;5.03;2.72;;;;;;;;;;5072305;28;20221;-83
2022/08/21 09:35:37;;;;;;;5.18;3.08;;;;;;;;;;5071478;28;20229;-83
2022/08/21 09:38:07;;;;;;;5.55;3.00;;;;;;;;;;5075646;28;20687;-83
2022/08/21 09:40:37;;;;;;;6.50;3.63;;;;;;;;;;5075113;28;20254;-83
2022/08/21 09:43:05;;;;;;;5.18;3.10;;;;;;;;;;5074436;28;20212;-83
2022/08/21 09:45:33;;;;;;;5.22;2.92;;;;;;;;;;5082406;28;20741;-82
2022/08/21 09:48:09;;;;;;;4.93;3.20;;;;;;;;;;5076268;28;20209;-83
2022/08/21 09:50:36;;;;;;;4.72;3.22;;;;;;;;;;5074667;28;20778;-84
2022/08/21 09:53:06;;;;;;;5.38;3.05;;;;;;;;;;5075837;28;20210;-83
2022/08/21 09:58:20;;;;;;;6.45;3.10;;;;;;;;;;5075772;28;20250;-83
2022/08/21 10:00:49;;;;;;;6.32;2.65;;;;;;;;;;5074577;28;20241;-83
2022/08/21 10:03:24;;;;;;;4.20;2.65;;;;;;;;;;5075612;28;20209;-83
2022/08/21 10:05:53;;;;;;;4.65;2.67;;;;;;;;;;5075971;28;20236;-83
2022/08/21 10:08:22;;;;;;;6.47;2.80;;;;;;;;;;5077792;28;20217;-83
2022/08/21 10:10:52;;;;;;;5.05;2.60;;;;;;;;;;5076470;28;20236;-84
2022/08/21 10:13:22;;;;;;;6.47;2.85;;;;;;;;;;5074803;28;20542;-83
2022/08/21 10:15:52;;;;;;;5.47;2.63;;;;;;;;;;5075026;28;20270;-82
2022/08/21 10:18:23;;;;;;;3.45;2.42;;;;;;;;;;5074788;28;20221;-83
2022/08/21 10:20:54;;;;;;;5.28;2.78;;;;;;;;;;5073510;28;20225;-83
2022/08/21 10:23:28;;;;;;;4.28;2.40;;;;;;;;;;5074663;28;20206;-83
2022/08/21 10:25:59;;;;;;;9.02;2.90;;;;;;;;;;5074303;28;20610;-83
2022/08/21 10:28:30;;;;;;;5.20;2.92;;;;;;;;;;5074560;28;20190;-83
2022/08/21 10:31:00;;;;;;;4.97;2.58;;;;;;;;;;5073702;28;20236;-83
2022/08/21 10:33:37;;;;;;;4.80;2.53;;;;;;;;;;5075008;28;20271;-83
2022/08/21 10:36:08;;;;;;;3.97;2.50;;;;;;;;;;5074064;28;20245;-83
2022/08/21 10:38:54;;;;;;;3.63;2.38;;;;;;;;;;5075257;28;20220;-83
2022/08/21 10:41:26;;;;;;;6.03;2.85;;;;;;;;;;5073863;28;20246;-83
2022/08/21 10:43:57;;;;;;;6.15;2.70;;;;;;;;;;5074856;28;20678;-83
2022/08/21 10:46:29;;;;;;;4.75;2.72;;;;;;;;;;5074218;28;20258;-83
2022/08/21 10:48:59;;;;;;;4.13;2.58;;;;;;;;;;5077331;28;20585;-83
2022/08/21 10:51:29;;;;;;;1.88;1.73;;;;;;;;;;5073152;28;20221;-83
2022/08/21 10:54:02;;;;;;;4.20;2.20;;;;;;;;;;5074362;28;20228;-83
2022/08/21 10:56:30;;;;;;;4.90;2.25;;;;;;;;;;5073380;28;20233;-83
2022/08/21 10:59:04;;;;;;;4.53;2.40;;;;;;;;;;5073759;28;20573;-83
2022/08/21 11:01:34;;;;;;;3.30;2.15;;;;;;;;;;5073324;28;20233;-83
2022/08/21 11:04:09;;;;;;;3.83;2.17;;;;;;;;;;5074125;28;20236;-83
2022/08/21 11:06:38;;;;;;;3.78;2.33;;;;;;;;;;5073479;28;20233;-84
2022/08/21 11:09:12;;;;;;;2.55;1.92;;;;;;;;;;5074020;28;20197;-83
2022/08/21 11:11:41;;;;;;;5.15;2.30;;;;;;;;;;5073325;28;20325;-83
2022/08/21 11:14:12;;;;;;;3.58;2.33;;;;;;;;;;5073149;28;20240;-84
2022/08/21 11:16:42;;;;;;;4.75;2.45;;;;;;;;;;5072171;28;20233;-85
2022/08/21 11:19:10;;;;;;;4.20;2.13;;;;;;;;;;5084413;28;20227;-84
2022/08/21 11:21:40;;;;;;;3.72;2.28;;;;;;;;;;5073380;28;20315;-84
2022/08/21 11:24:18;;;;;;;4.18;2.25;;;;;;;;;;5076007;28;20562;-83
2022/08/21 11:26:48;;;;;;;2.88;2.05;;;;;;;;;;5087605;28;20581;-84
2022/08/21 11:29:17;;;;;;;5.15;2.70;;;;;;;;;;5093441;28;20205;-83
2022/08/21 11:31:53;;;;;;;3.45;2.05;;;;;;;;;;5092487;28;20433;-85
2022/08/21 11:34:24;;;;;;;5.32;2.40;;;;;;;;;;5092886;28;20337;-84
2022/08/21 11:36:56;;;;;;;3.38;2.13;;;;;;;;;;5092490;28;20236;-84
2022/08/21 11:39:27;;;;;;;5.85;2.22;;;;;;;;;;5091563;28;20189;-84
2022/08/21 11:42:00;;;;;;;5.07;2.60;;;;;;;;;;5089048;28;20240;-87
2022/08/21 11:44:34;;;;;;;3.05;2.25;;;;;;;;;;5093526;28;20304;-85
2022/08/21 11:47:05;;;;;;;4.93;2.50;;;;;;;;;;5080898;28;20270;-85
2022/08/21 11:49:44;;;;;;;3.42;1.90;;;;;;;;;;5072408;28;20205;-88
2022/08/21 11:52:15;;;;;;;3.63;2.00;;;;;;;;;;5071684;28;20208;-84
2022/08/21 11:54:46;;;;;;;3.90;2.33;;;;;;;;;;5075780;28;20225;-84
2022/08/21 11:57:16;;;;;;;4.78;2.20;;;;;;;;;;5061269;28;20189;-85
2022/08/21 11:59:46;;;;;;;3.47;2.30;;;;;;;;;;5074947;28;20711;-85
2022/08/21 12:02:16;;;;;;;2.67;2.33;;;;;;;;;;5072625;28;20224;-84
2022/08/21 12:04:46;;;;;;;3.90;2.65;;;;;;;;;;5078586;28;20223;-85
2022/08/21 12:07:14;;;;;;;4.50;2.78;;;;;;;;;;5093306;28;20208;-85
2022/08/21 12:09:41;;;;;;;3.05;2.15;;;;;;;;;;5093248;28;20269;-85
2022/08/21 12:12:25;;;;;;;3.50;2.20;;;;;;;;;;5093724;28;20208;-85
2022/08/21 12:15:04;;;;;;;3.47;2.20;;;;;;;;;;5017948;28;1019396;-84
2022/08/21 12:17:36;;;;;;;3.83;2.45;;;;;;;;;;5054136;28;20197;-84
2022/08/21 12:20:16;;;;;;;6.00;2.60;;;;;;;;;;5053408;28;20236;-86
2022/08/21 12:22:49;;;;;;;3.97;2.50;;;;;;;;;;5052676;28;20229;-85
2022/08/21 12:25:18;;;;;;;4.18;2.40;;;;;;;;;;5052350;28;20237;-84
2022/08/21 12:27:48;;;;;;;3.92;2.83;;;;;;;;;;5053096;28;20549;-84
2022/08/21 12:30:23;;;;;;;6.38;2.50;;;;;;;;;;5052410;28;20240;-84
2022/08/21 12:32:56;;;;;;;3.05;2.00;;;;;;;;;;5053545;28;20201;-84
2022/08/21 12:35:27;;;;;;;5.55;2.75;;;;;;;;;;5062171;28;20239;-85
2022/08/21 12:37:58;;;;;;;6.50;2.50;;;;;;;;;;5093811;28;20211;-84
2022/08/21 12:40:27;;;;;;;4.78;2.47;;;;;;;;;;5093217;28;20247;-84
2022/08/21 12:42:57;;;;;;;3.33;2.60;;;;;;;;;;5076183;28;20219;-84
2022/08/21 12:45:29;;;;;;;2.80;2.10;;;;;;;;;;5084933;28;20731;-84
2022/08/21 12:47:58;;;;;;;4.30;2.22;;;;;;;;;;5061150;28;20192;-85
2022/08/21 12:50:30;;;;;;;3.47;2.30;;;;;;;;;;5093218;28;20712;-83
2022/08/21 12:52:59;;;;;;;4.20;2.30;;;;;;;;;;5083056;28;20189;-84
2022/08/21 12:55:28;;;;;;;4.57;2.08;;;;;;;;;;5072796;28;20742;-84
2022/08/21 12:57:56;;;;;;;4.55;2.20;;;;;;;;;;5079633;28;20664;-85
2022/08/21 13:00:25;;;;;;;4.45;2.22;;;;;;;;;;5091482;28;20971;-85
2022/08/21 13:02:54;;;;;;;5.25;2.47;;;;;;;;;;5074478;28;20228;-84
2022/08/21 13:05:25;;;;;;;5.28;2.28;;;;;;;;;;5073686;28;20236;-84
2022/08/21 13:07:52;;;;;;;5.68;2.30;;;;;;;;;;5073615;28;20193;-84
2022/08/21 13:10:20;;;;;;;5.82;2.47;;;;;;;;;;5072395;28;20255;-84
2022/08/21 13:12:48;;;;;;;2.88;2.00;;;;;;;;;;5076762;28;20205;-85
2022/08/21 13:15:23;;;;;;;4.03;2.35;;;;;;;;;;5077354;28;20244;-85
2022/08/21 13:17:51;;;;;;;3.15;2.10;;;;;;;;;;5096917;28;20710;-84
2022/08/21 13:20:21;;;;;;;3.55;1.90;;;;;;;;;;5076795;28;20604;-85
2022/08/21 13:22:49;;;;;;;2.83;2.08;;;;;;;;;;5077609;28;20266;-84
2022/08/21 13:25:17;;;;;;;6.40;2.42;;;;;;;;;;5076340;28;20669;-84
2022/08/21 13:27:47;;;;;;;4.47;2.13;;;;;;;;;;5077445;28;20589;-85
2022/08/21 13:30:15;;;;;;;2.65;1.98;;;;;;;;;;5062779;28;20307;-85
2022/08/21 13:32:45;;;;;;;3.92;2.15;;;;;;;;;;5077276;28;20208;-84
2022/08/21 13:35:15;;;;;;;3.58;2.35;;;;;;;;;;5076395;28;20237;-85
2022/08/21 13:37:43;;;;;;;4.47;2.13;;;;;;;;;;5076510;28;20204;-84
2022/08/21 13:40:13;;;;;;;3.90;2.35;;;;;;;;;;5076165;28;20232;-84
2022/08/21 13:42:41;;;;;;;5.10;2.63;;;;;;;;;;5076178;28;20705;-84
2022/08/21 13:45:14;;;;;;;2.63;1.98;;;;;;;;;;5076349;28;20256;-84
2022/08/21 13:47:41;;;;;;;5.00;2.08;;;;;;;;;;5077274;28;20200;-84
2022/08/21 13:50:11;;;;;;;4.95;2.20;;;;;;;;;;5075442;28;20700;-84
2022/08/21 13:52:47;;;;;;;3.55;2.17;;;;;;;;;;5076569;28;20185;-84
2022/08/21 13:55:17;;;;;;;2.92;2.30;;;;;;;;;;5076297;28;20239;-85
2022/08/21 13:57:45;;;;;;;5.00;2.13;;;;;;;;;;5076756;28;20615;-84
2022/08/21 14:00:14;;;;;;;3.00;2.05;;;;;;;;;;5074628;28;20404;-86
2022/08/21 14:02:42;;;;;;;3.53;2.20;;;;;;;;;;5076438;28;20576;-86
2022/08/21 14:05:16;;;;;;;2.08;1.88;;;;;;;;;;5085449;28;20228;-86
2022/08/21 14:07:44;;;;;;;5.18;2.25;;;;;;;;;;5086219;28;20212;-86
2022/08/21 14:10:14;;;;;;;2.90;2.00;;;;;;;;;;5075815;28;20236;-85
2022/08/21 14:12:43;;;;;;;3.08;2.30;;;;;;;;;;5095835;28;20205;-85
2022/08/21 14:15:11;;;;;;;2.75;2.10;;;;;;;;;;5098843;28;20228;-84
2022/08/21 14:17:41;;;;;;;5.35;2.60;;;;;;;;;;5076470;28;20205;-87
2022/08/21 14:20:09;;;;;;;2.88;1.98;;;;;;;;;;5075086;28;20261;-86
2022/08/21 14:22:40;;;;;;;4.60;2.17;;;;;;;;;;5075052;28;20232;-85
2022/08/21 14:25:08;;;;;;;2.35;2.13;;;;;;;;;;5074705;28;20241;-86
2022/08/21 14:27:36;;;;;;;4.82;2.03;;;;;;;;;;5075131;28;20213;-86
2022/08/21 14:30:09;;;;;;;3.95;2.22;;;;;;;;;;5074948;28;20229;-85
2022/08/21 14:32:39;;;;;;;4.10;2.05;;;;;;;;;;5084521;28;20220;-85
2022/08/21 14:35:06;;;;;;;3.15;2.00;;;;;;;;;;5074658;28;20240;-85
2022/08/21 14:37:33;;;;;;;3.00;1.90;;;;;;;;;;5074977;28;20247;-85
2022/08/21 14:40:02;;;;;;;2.83;2.08;;;;;;;;;;5074578;28;20229;-86
2022/08/21 14:42:30;;;;;;;3.67;2.35;;;;;;;;;;5076538;28;20233;-86
2022/08/21 14:44:58;;;;;;;3.15;2.00;;;;;;;;;;5075674;28;20241;-85
2022/08/21 14:47:25;;;;;;;5.18;2.28;;;;;;;;;;5075876;28;20237;-87
2022/08/21 14:49:53;;;;;;;3.03;2.17;;;;;;;;;;5074844;28;20237;-85
2022/08/21 14:52:22;;;;;;;2.88;2.15;;;;;;;;;;5074143;28;20251;-85
2022/08/21 14:54:49;;;;;;;3.20;1.83;;;;;;;;;;5073521;28;20282;-85